createdAt,value
2023-03-22T00:00:07.345Z,65.07
2023-03-22T00:02:37.882Z,57.80
2023-03-22T00:05:08.534Z,62.28
2023-03-22T00:07:39.359Z,61.88
2023-03-22T00:10:09.603Z,57.50
2023-03-22T00:12:39.798Z,60.75
2023-03-22T00:15:11.116Z,55.00
2023-03-22T00:17:43.534Z,53.55
2023-03-22T00:20:14.624Z,54.33
2023-03-22T00:22:46.143Z,58.60
2023-03-22T00:25:16.267Z,62.05
2023-03-22T00:27:46.894Z,58.22
2023-03-22T00:30:17.930Z,57.95
2023-03-22T00:32:48.133Z,54.58
2023-03-22T00:35:18.581Z,58.05
2023-03-22T00:37:52.437Z,58.92
2023-03-22T00:40:22.608Z,60.47
2023-03-22T00:42:53.265Z,57.42
2023-03-22T00:45:23.584Z,56.15
2023-03-22T00:47:53.957Z,56.50
2023-03-22T00:50:24.486Z,55.38
2023-03-22T00:52:55.372Z,55.17
2023-03-22T00:55:26.079Z,54.75
2023-03-22T00:57:56.574Z,60.08
2023-03-22T01:00:27.886Z,52.38
2023-03-22T01:03:01.334Z,54.58
2023-03-22T01:05:33.017Z,57.00
2023-03-22T01:08:09.850Z,54.08
2023-03-22T01:10:43.675Z,50.40
2023-03-22T01:13:16.379Z,60.50
2023-03-22T01:15:49.361Z,54.75
2023-03-22T01:18:19.703Z,52.05
2023-03-22T01:20:50.184Z,51.15
2023-03-22T01:23:20.890Z,48.53
2023-03-22T01:25:51.054Z,49.20
2023-03-22T01:28:21.255Z,56.65
2023-03-22T01:30:52.638Z,54.25
2023-03-22T01:33:23.208Z,52.40
2023-03-22T01:35:54.604Z,50.38
2023-03-22T01:38:25.137Z,52.63
2023-03-22T01:41:03.971Z,53.55
2023-03-22T01:43:37.486Z,55.33
2023-03-22T01:46:07.786Z,59.20
2023-03-22T01:48:43.630Z,57.47
2023-03-22T01:51:32.413Z,51.42
2023-03-22T01:54:17.028Z,50.65
2023-03-22T01:56:48.532Z,50.95
2023-03-22T01:59:27.705Z,51.13
2023-03-22T02:02:16.427Z,54.38
2023-03-22T02:04:59.391Z,45.13
2023-03-22T02:07:33.249Z,50.20
2023-03-22T02:10:05.493Z,45.80
2023-03-22T02:13:07.122Z,45.58
2023-03-22T02:16:16.650Z,55.97
2023-03-22T02:19:17.516Z,49.22
2023-03-22T02:22:08.147Z,44.58
2023-03-22T02:24:47.593Z,43.97
2023-03-22T02:27:37.159Z,46.88
2023-03-22T02:30:24.258Z,46.75
2023-03-22T02:33:14.142Z,45.17
2023-03-22T02:36:03.649Z,48.78
2023-03-22T02:38:54.298Z,47.85
2023-03-22T02:41:34.880Z,46.25
2023-03-22T02:44:09.197Z,47.88
2023-03-22T02:46:46.060Z,50.35
2023-03-22T02:49:21.555Z,47.40
2023-03-22T02:51:55.228Z,42.30
2023-03-22T02:54:30.204Z,41.50
2023-03-22T02:57:08.600Z,47.50
2023-03-22T02:59:39.959Z,40.90
2023-03-22T03:02:12.292Z,40.40
2023-03-22T03:04:47.730Z,39.58
2023-03-22T03:07:20.675Z,43.38
2023-03-22T03:09:51.240Z,49.00
2023-03-22T03:12:23.768Z,45.47
2023-03-22T03:14:56.752Z,42.50
2023-03-22T03:17:47.408Z,44.47
2023-03-22T03:20:31.538Z,47.40
2023-03-22T03:23:21.622Z,38.38
2023-03-22T03:26:12.537Z,40.92
2023-03-22T03:28:51.422Z,44.38
2023-03-22T03:31:42.977Z,39.33
2023-03-22T03:34:32.817Z,42.25
2023-03-22T03:37:09.760Z,39.53
2023-03-22T03:39:46.126Z,36.72
2023-03-22T03:42:17.687Z,47.33
2023-03-22T03:44:48.314Z,38.25
2023-03-22T03:47:19.097Z,38.97
2023-03-22T03:49:49.576Z,36.80
2023-03-22T03:52:19.456Z,37.67
2023-03-22T03:54:49.882Z,38.35
2023-03-22T03:57:25.204Z,42.67
2023-03-22T03:59:55.403Z,37.38
2023-03-22T04:02:44.785Z,39.78
2023-03-22T04:05:35.163Z,40.50
2023-03-22T04:08:05.202Z,38.45
2023-03-22T04:10:36.150Z,37.95
2023-03-22T04:13:06.289Z,35.00
2023-03-22T04:15:36.853Z,40.20
2023-03-22T04:18:12.831Z,37.13
2023-03-22T04:20:43.180Z,37.13
2023-03-22T04:23:14.089Z,37.35
2023-03-22T04:25:45.198Z,40.70
2023-03-22T04:28:15.833Z,36.10
2023-03-22T04:30:47.317Z,37.38
2023-03-22T04:33:40.835Z,36.13
2023-03-22T04:36:32.765Z,40.85
2023-03-22T04:39:23.411Z,35.15
2023-03-22T04:42:13.189Z,35.22
2023-03-22T04:44:44.248Z,34.65
2023-03-22T04:47:15.051Z,36.70
2023-03-22T04:49:45.835Z,36.45
2023-03-22T04:52:18.543Z,35.80
2023-03-22T04:54:58.730Z,34.72
2023-03-22T04:57:29.223Z,35.22
2023-03-22T04:59:59.532Z,38.22
2023-03-22T05:02:30.607Z,35.80
2023-03-22T05:05:00.857Z,33.17
2023-03-22T05:07:36.933Z,34.42
2023-03-22T05:10:09.090Z,32.53
2023-03-22T05:12:39.450Z,32.45
2023-03-22T05:15:29.432Z,31.25
2023-03-22T05:18:01.861Z,30.50
2023-03-22T05:20:32.012Z,31.00
2023-03-22T05:23:22.701Z,31.00
2023-03-22T05:25:59.695Z,31.70
2023-03-22T05:28:30.171Z,31.02
2023-03-22T05:31:16.481Z,29.77
2023-03-22T05:33:56.826Z,36.92
2023-03-22T05:36:31.711Z,42.10
2023-03-22T05:39:22.100Z,30.33
2023-03-22T05:41:53.333Z,30.85
2023-03-22T05:44:24.226Z,26.73
2023-03-22T05:47:04.131Z,27.77
2023-03-22T05:49:47.179Z,29.13
2023-03-22T05:52:17.950Z,28.10
2023-03-22T05:54:59.931Z,26.85
2023-03-22T05:57:31.649Z,27.77
2023-03-22T06:00:03.320Z,33.90
2023-03-22T06:02:45.975Z,31.70
2023-03-22T06:05:18.124Z,27.50
2023-03-22T06:07:49.359Z,26.75
2023-03-22T06:10:21.528Z,25.67
2023-03-22T06:12:52.730Z,27.52
2023-03-22T06:15:29.431Z,25.52
2023-03-22T06:18:08.669Z,24.13
2023-03-22T06:20:43.602Z,25.00
2023-03-22T06:23:19.267Z,27.52
2023-03-22T06:25:50.279Z,23.70
2023-03-22T06:28:21.076Z,25.45
2023-03-22T06:30:54.157Z,25.95
2023-03-22T06:33:46.891Z,24.52
2023-03-22T06:36:37.066Z,27.65
2023-03-22T06:39:27.249Z,26.17
2023-03-22T06:41:58.184Z,25.05
2023-03-22T06:44:29.670Z,23.95
2023-03-22T06:47:10.708Z,23.70
2023-03-22T06:49:59.750Z,23.50
2023-03-22T06:52:44.426Z,22.08
2023-03-22T06:55:15.405Z,23.48
2023-03-22T06:57:45.398Z,23.17
2023-03-22T07:00:16.856Z,27.80
2023-03-22T07:02:47.669Z,23.10
2023-03-22T07:05:29.648Z,27.05
2023-03-22T07:08:00.161Z,23.17
2023-03-22T07:10:30.502Z,24.23
2023-03-22T07:13:01.957Z,29.15
2023-03-22T07:15:34.558Z,22.23
2023-03-22T07:18:14.948Z,22.33
2023-03-22T07:20:44.964Z,28.33
2023-03-22T07:23:17.059Z,23.95
2023-03-22T07:25:53.542Z,21.80
2023-03-22T07:28:31.486Z,22.95
2023-03-22T07:31:07.667Z,20.73
2023-03-22T07:33:49.927Z,23.60
2023-03-22T07:36:25.285Z,22.02
2023-03-22T07:38:57.915Z,21.38
2023-03-22T07:41:41.163Z,23.02
2023-03-22T07:44:31.299Z,24.30
2023-03-22T07:47:37.803Z,22.10
2023-03-22T07:50:27.134Z,22.55
2023-03-22T07:52:59.756Z,22.60
2023-03-22T07:55:30.343Z,25.25
2023-03-22T07:58:00.798Z,25.40
2023-03-22T08:00:31.204Z,29.45
2023-03-22T08:03:21.308Z,27.48
2023-03-22T08:06:09.279Z,22.40
2023-03-22T08:08:40.610Z,22.40
2023-03-22T08:11:10.600Z,21.70
2023-03-22T08:13:41.294Z,22.10
2023-03-22T08:16:13.688Z,24.45
2023-03-22T08:18:45.332Z,23.50
2023-03-22T08:21:16.190Z,24.65
2023-03-22T08:23:53.102Z,23.42
2023-03-22T08:26:44.201Z,22.30
2023-03-22T08:29:25.127Z,24.60
2023-03-22T08:31:55.750Z,23.25
2023-03-22T08:34:26.325Z,22.77
2023-03-22T08:36:56.523Z,28.10
2023-03-22T08:39:27.096Z,30.10
2023-03-22T08:42:10.191Z,39.25
2023-03-22T08:44:40.582Z,26.55
2023-03-22T08:47:11.538Z,28.73
2023-03-22T08:49:44.832Z,25.70
2023-03-22T08:52:22.767Z,25.73
2023-03-22T08:55:01.766Z,28.27
2023-03-22T08:57:53.076Z,23.60
2023-03-22T09:00:45.782Z,25.50
2023-03-22T09:03:38.067Z,28.25
2023-03-22T09:06:09.280Z,26.35
2023-03-22T09:08:43.595Z,29.98
2023-03-22T09:11:18.009Z,26.23
2023-03-22T09:13:51.101Z,28.45
2023-03-22T09:16:22.586Z,25.67
2023-03-22T09:18:52.883Z,29.65
2023-03-22T09:21:28.812Z,27.77
2023-03-22T09:24:08.129Z,26.88
2023-03-22T09:26:52.804Z,28.05
2023-03-22T09:29:23.335Z,30.88
2023-03-22T09:31:55.007Z,27.67
2023-03-22T09:34:30.734Z,31.35
2023-03-22T09:37:03.834Z,27.23
2023-03-22T09:39:46.109Z,28.17
2023-03-22T09:42:39.246Z,26.15
2023-03-22T09:45:16.128Z,26.98
2023-03-22T09:47:48.796Z,27.85
2023-03-22T09:50:23.633Z,30.00
2023-03-22T09:52:54.695Z,29.52
2023-03-22T09:55:36.125Z,27.17
2023-03-22T09:58:27.085Z,29.67
2023-03-22T10:01:03.136Z,27.13
2023-03-22T10:03:53.240Z,28.15
2023-03-22T10:06:25.584Z,31.95
2023-03-22T10:09:02.256Z,28.90
2023-03-22T10:11:49.544Z,26.73
2023-03-22T10:14:27.593Z,29.05
2023-03-22T10:16:59.211Z,26.80
2023-03-22T10:19:33.642Z,26.35
2023-03-22T10:22:04.937Z,27.95
2023-03-22T10:24:38.196Z,26.45
2023-03-22T10:27:17.321Z,26.33
2023-03-22T10:29:53.489Z,28.75
2023-03-22T10:32:48.006Z,29.33
2023-03-22T10:35:27.205Z,27.70
2023-03-22T10:37:58.582Z,31.52
2023-03-22T10:40:33.771Z,32.00
2023-03-22T10:43:07.282Z,30.92
2023-03-22T10:45:38.123Z,29.92
2023-03-22T10:48:10.693Z,31.88
2023-03-22T10:50:43.038Z,31.90
2023-03-22T10:53:27.133Z,34.63
2023-03-22T10:55:58.185Z,35.67
2023-03-22T10:58:32.800Z,33.33
2023-03-22T11:01:07.309Z,37.78
2023-03-22T11:03:42.754Z,42.17
2023-03-22T11:06:17.837Z,39.83
2023-03-22T11:08:49.493Z,38.78
2023-03-22T11:11:33.401Z,43.08
2023-03-22T11:14:23.137Z,40.35
2023-03-22T11:16:58.654Z,37.00
2023-03-22T11:19:36.746Z,36.80
2023-03-22T11:22:18.849Z,40.25
2023-03-22T11:24:49.348Z,34.63
2023-03-22T11:27:25.873Z,34.45
2023-03-22T11:30:00.313Z,34.13
2023-03-22T11:32:31.771Z,28.85
2023-03-22T11:35:21.587Z,34.20
2023-03-22T11:37:56.624Z,33.60
2023-03-22T11:40:29.714Z,31.17
2023-03-22T11:43:16.933Z,38.83
2023-03-22T11:45:47.658Z,33.65
2023-03-22T11:48:20.129Z,34.05
2023-03-22T11:50:50.650Z,31.15
2023-03-22T11:53:24.287Z,34.20
2023-03-22T11:55:56.789Z,33.83
2023-03-22T11:58:31.413Z,35.88
2023-03-22T12:01:03.843Z,40.75
2023-03-22T12:03:39.290Z,35.00
2023-03-22T12:06:29.211Z,34.85
2023-03-22T12:09:02.377Z,41.28
2023-03-22T12:11:49.938Z,34.17
2023-03-22T12:14:37.282Z,41.17
2023-03-22T12:17:18.228Z,38.67
2023-03-22T12:19:54.224Z,37.50
2023-03-22T12:22:28.840Z,44.72
2023-03-22T12:24:59.655Z,39.88
2023-03-22T12:27:33.816Z,40.35
2023-03-22T12:30:09.913Z,39.00
2023-03-22T12:32:59.965Z,41.30
2023-03-22T12:35:33.326Z,42.85
2023-03-22T12:38:09.092Z,38.38
2023-03-22T12:40:43.724Z,44.47
2023-03-22T12:43:17.971Z,46.45
2023-03-22T12:45:50.664Z,38.33
2023-03-22T12:48:40.355Z,39.30
2023-03-22T12:51:12.079Z,41.55
2023-03-22T12:53:44.604Z,42.75
2023-03-22T12:56:17.375Z,37.28
2023-03-22T12:58:53.376Z,35.20
2023-03-22T13:01:36.657Z,41.80
2023-03-22T13:04:26.429Z,40.13
2023-03-22T13:07:00.962Z,37.33
2023-03-22T13:09:50.977Z,38.90
2023-03-22T13:12:29.806Z,39.22
2023-03-22T13:15:05.099Z,42.15
2023-03-22T13:17:38.055Z,39.83
2023-03-22T13:20:28.611Z,46.35
2023-03-22T13:23:02.314Z,37.45
2023-03-22T13:25:36.634Z,39.95
2023-03-22T13:28:27.825Z,40.78
2023-03-22T13:30:59.376Z,37.10
2023-03-22T13:33:32.212Z,43.35
2023-03-22T13:36:22.412Z,40.03
2023-03-22T13:39:00.301Z,39.30
2023-03-22T13:41:32.259Z,39.92
2023-03-22T13:44:04.374Z,37.92
2023-03-22T13:46:54.173Z,37.60
2023-03-22T13:49:34.735Z,43.03
2023-03-22T13:52:08.911Z,38.33
2023-03-22T13:54:43.097Z,39.33
2023-03-22T13:57:19.110Z,43.08
2023-03-22T14:00:17.814Z,44.88
2023-03-22T14:02:52.149Z,45.67
2023-03-22T14:05:25.011Z,45.20
2023-03-22T14:07:57.809Z,47.50
2023-03-22T14:10:39.585Z,45.47
2023-03-22T14:13:21.948Z,41.03
2023-03-22T14:15:57.246Z,44.67
2023-03-22T14:18:31.093Z,40.63
2023-03-22T14:21:03.685Z,38.30
